Time;durP1;ratioP1;P1;durP2;ratioP2;P2;SDS_P1;SDS_P2;PMS_P1;PMS_P2;Temp;Humidity;BMP_temperature;BMP_pressure;BME280_temperature;BME280_humidity;BME280_pressure;Samples;Min_cycle;Max_cycle;Signal;HPM_P1;HPM_P2
2023/06/05 00:01:43;;;;;;;4.70;4.30;;;;;;;;;;5021917;28;20037;-69
2023/06/05 00:04:09;;;;;;;4.72;4.32;;;;;;;;;;5023127;28;20539;-68
2023/06/05 00:06:37;;;;;;;5.28;4.43;;;;;;;;;;5021408;28;20033;-69
2023/06/05 00:09:04;;;;;;;4.70;4.40;;;;;;;;;;5023382;28;20037;-69
2023/06/05 00:11:30;;;;;;;6.40;4.63;;;;;;;;;;5021361;28;20037;-69
2023/06/05 00:13:55;;;;;;;5.80;4.57;;;;;;;;;;5023624;28;20120;-69
2023/06/05 00:16:21;;;;;;;4.80;4.40;;;;;;;;;;5020933;28;20445;-69
2023/06/05 00:18:48;;;;;;;5.30;4.80;;;;;;;;;;5022951;28;20480;-68
2023/06/05 00:21:13;;;;;;;5.03;4.63;;;;;;;;;;5023694;28;20060;-69
2023/06/05 00:23:39;;;;;;;4.75;4.45;;;;;;;;;;5026178;28;20535;-68
2023/06/05 00:26:04;;;;;;;5.05;4.65;;;;;;;;;;5027983;28;20068;-69
2023/06/05 00:28:30;;;;;;;5.65;4.78;;;;;;;;;;5024641;28;20106;-68
2023/06/05 00:30:56;;;;;;;5.25;4.85;;;;;;;;;;5026403;28;20037;-68
2023/06/05 00:33:21;;;;;;;4.75;4.35;;;;;;;;;;5029495;28;20037;-69
2023/06/05 00:35:47;;;;;;;4.88;4.47;;;;;;;;;;5026413;28;20425;-68
2023/06/05 00:38:12;;;;;;;4.95;4.45;;;;;;;;;;5024410;28;20041;-68
2023/06/05 00:40:38;;;;;;;5.07;4.45;;;;;;;;;;5027356;28;20030;-69
2023/06/05 00:43:05;;;;;;;4.63;4.30;;;;;;;;;;5026435;28;20045;-68
2023/06/05 00:45:31;;;;;;;4.60;4.22;;;;;;;;;;5025387;28;20040;-69
2023/06/05 00:47:58;;;;;;;5.60;5.10;;;;;;;;;;5025418;28;20048;-68
2023/06/05 00:50:24;;;;;;;5.97;4.90;;;;;;;;;;5025663;28;20469;-68
2023/06/05 00:52:51;;;;;;;5.90;5.25;;;;;;;;;;5027203;28;20045;-69
2023/06/05 00:55:17;;;;;;;5.25;4.70;;;;;;;;;;5023667;28;20038;-68
2023/06/05 00:57:44;;;;;;;5.03;4.63;;;;;;;;;;5024327;28;20049;-69
2023/06/05 01:00:12;;;;;;;5.30;4.90;;;;;;;;;;5026839;28;20056;-68
2023/06/05 01:02:39;;;;;;;5.30;4.87;;;;;;;;;;5027066;28;20038;-68
2023/06/05 01:05:05;;;;;;;5.20;4.80;;;;;;;;;;5023530;28;20045;-69
2023/06/05 01:07:38;;;;;;;5.05;4.65;;;;;;;;;;5026798;28;20033;-68
2023/06/05 01:10:06;;;;;;;5.22;4.78;;;;;;;;;;5025272;28;20516;-68
2023/06/05 01:12:50;;;;;;;5.18;4.78;;;;;;;;;;5026878;28;20037;-68
2023/06/05 01:15:18;;;;;;;6.60;5.50;;;;;;;;;;5023896;28;20041;-69
2023/06/05 01:17:47;;;;;;;4.78;4.45;;;;;;;;;;5025692;28;20091;-69
2023/06/05 01:20:13;;;;;;;5.75;5.13;;;;;;;;;;5026540;28;20036;-67
2023/06/05 01:22:39;;;;;;;5.55;5.05;;;;;;;;;;5024498;28;20037;-68
2023/06/05 01:25:09;;;;;;;5.10;4.35;;;;;;;;;;5025406;28;20038;-68
2023/06/05 01:27:44;;;;;;;5.75;5.25;;;;;;;;;;5025285;28;20041;-68
2023/06/05 01:30:16;;;;;;;5.10;4.70;;;;;;;;;;5018505;28;20128;-68
2023/06/05 01:33:02;;;;;;;6.30;5.03;;;;;;;;;;5019932;28;20037;-68
2023/06/05 01:35:33;;;;;;;5.35;4.90;;;;;;;;;;5025366;28;20033;-69
2023/06/05 01:38:05;;;;;;;4.80;4.32;;;;;;;;;;5008474;28;20052;-68
2023/06/05 01:40:33;;;;;;;4.93;4.57;;;;;;;;;;5024781;28;20436;-67
2023/06/05 01:43:00;;;;;;;4.97;4.55;;;;;;;;;;5025449;28;20041;-68
2023/06/05 01:45:26;;;;;;;4.97;4.57;;;;;;;;;;5025087;28;20334;-68
2023/06/05 01:47:53;;;;;;;4.75;4.35;;;;;;;;;;5025465;28;20508;-68
2023/06/05 01:50:19;;;;;;;5.15;4.65;;;;;;;;;;5022812;28;20036;-68
2023/06/05 01:52:46;;;;;;;5.10;4.70;;;;;;;;;;5025325;28;20386;-68
2023/06/05 01:55:18;;;;;;;5.18;4.72;;;;;;;;;;5030611;28;20104;-68
2023/06/05 01:57:44;;;;;;;5.43;4.93;;;;;;;;;;5023914;28;20037;-68
2023/06/05 02:00:13;;;;;;;5.10;4.70;;;;;;;;;;5022272;28;20040;-68
2023/06/05 02:02:42;;;;;;;5.20;4.80;;;;;;;;;;5025122;28;20128;-68
2023/06/05 02:05:10;;;;;;;4.82;4.45;;;;;;;;;;5026491;28;20041;-68
2023/06/05 02:07:40;;;;;;;5.73;5.10;;;;;;;;;;5025197;28;20626;-68
2023/06/05 02:10:09;;;;;;;5.43;5.03;;;;;;;;;;5022096;28;20426;-68
2023/06/05 02:12:41;;;;;;;5.30;4.90;;;;;;;;;;5024279;28;20048;-68
2023/06/05 02:15:09;;;;;;;5.82;5.32;;;;;;;;;;5025694;28;20033;-68
2023/06/05 02:17:34;;;;;;;5.90;5.30;;;;;;;;;;5024123;28;20045;-67
2023/06/05 02:20:01;;;;;;;7.25;5.20;;;;;;;;;;5023435;28;20448;-68
2023/06/05 02:22:27;;;;;;;5.28;4.75;;;;;;;;;;5007713;28;20124;-68
2023/06/05 02:24:53;;;;;;;5.10;4.70;;;;;;;;;;5022988;28;20116;-69
2023/06/05 02:27:20;;;;;;;5.45;4.95;;;;;;;;;;5024319;28;20045;-68
2023/06/05 02:29:46;;;;;;;6.25;4.55;;;;;;;;;;5022065;28;20038;-68
2023/06/05 02:32:12;;;;;;;5.97;5.18;;;;;;;;;;5024458;28;20034;-68
2023/06/05 02:34:38;;;;;;;5.72;4.80;;;;;;;;;;5022141;28;20030;-69
2023/06/05 02:37:04;;;;;;;4.80;4.43;;;;;;;;;;5037995;28;20033;-68
2023/06/05 02:39:31;;;;;;;4.93;4.57;;;;;;;;;;5031722;28;20072;-68
2023/06/05 02:41:57;;;;;;;5.05;4.65;;;;;;;;;;5021504;28;20034;-67
2023/06/05 02:44:23;;;;;;;5.38;4.88;;;;;;;;;;5010078;28;20030;-69
2023/06/05 02:46:49;;;;;;;7.22;4.88;;;;;;;;;;5029712;28;20094;-68
2023/06/05 02:49:15;;;;;;;5.07;4.68;;;;;;;;;;5020869;28;20030;-68
2023/06/05 02:51:40;;;;;;;4.60;4.30;;;;;;;;;;5023524;28;20040;-68
2023/06/05 02:54:07;;;;;;;6.30;4.53;;;;;;;;;;5021061;28;20863;-67
2023/06/05 02:56:33;;;;;;;5.40;4.90;;;;;;;;;;5023928;28;20064;-67
2023/06/05 02:59:02;;;;;;;5.07;4.57;;;;;;;;;;5029628;28;20072;-68
2023/06/05 03:01:34;;;;;;;6.18;4.85;;;;;;;;;;5023397;28;20069;-68
2023/06/05 03:04:02;;;;;;;5.13;4.72;;;;;;;;;;5012951;28;20133;-68
2023/06/05 03:06:33;;;;;;;5.07;4.65;;;;;;;;;;5011939;28;20143;-68
2023/06/05 03:09:02;;;;;;;5.00;4.60;;;;;;;;;;5019067;28;20075;-67
2023/06/05 03:11:28;;;;;;;5.90;5.40;;;;;;;;;;5020460;28;20076;-68
2023/06/05 03:13:54;;;;;;;5.50;4.93;;;;;;;;;;5021417;28;20044;-67
2023/06/05 03:16:20;;;;;;;5.60;5.15;;;;;;;;;;5019812;28;20408;-67
2023/06/05 03:18:50;;;;;;;6.75;4.78;;;;;;;;;;5026071;28;20045;-68
2023/06/05 03:21:16;;;;;;;5.35;4.82;;;;;;;;;;5019635;28;20520;-67
2023/06/05 03:23:42;;;;;;;5.57;5.18;;;;;;;;;;5027190;28;20076;-67
2023/06/05 03:26:11;;;;;;;8.63;5.10;;;;;;;;;;5020340;28;20485;-67
2023/06/05 03:28:37;;;;;;;5.97;5.47;;;;;;;;;;5021643;28;20037;-68
2023/06/05 03:31:06;;;;;;;5.28;4.88;;;;;;;;;;5031075;28;20037;-67
2023/06/05 03:33:36;;;;;;;5.95;5.18;;;;;;;;;;5019091;28;20041;-68
2023/06/05 03:36:02;;;;;;;5.85;5.35;;;;;;;;;;5008763;28;20042;-67
2023/06/05 03:38:29;;;;;;;5.35;4.95;;;;;;;;;;5026689;28;20041;-67
2023/06/05 03:40:55;;;;;;;5.63;5.18;;;;;;;;;;5019494;28;20057;-67
2023/06/05 03:43:21;;;;;;;7.00;5.43;;;;;;;;;;5022069;28;20080;-68
2023/06/05 03:45:46;;;;;;;7.20;5.38;;;;;;;;;;5019613;28;20555;-67
2023/06/05 03:48:13;;;;;;;6.18;5.57;;;;;;;;;;5032401;28;20064;-67
2023/06/05 03:50:41;;;;;;;5.70;5.20;;;;;;;;;;5020524;28;20737;-67
2023/06/05 03:53:08;;;;;;;5.95;5.45;;;;;;;;;;5021097;28;20055;-67
2023/06/05 03:55:41;;;;;;;5.68;5.18;;;;;;;;;;5002407;28;20030;-68
2023/06/05 03:58:10;;;;;;;5.60;5.20;;;;;;;;;;5022160;28;20504;-68
2023/06/05 04:00:35;;;;;;;7.70;5.35;;;;;;;;;;5023566;28;20033;-67
2023/06/05 04:03:01;;;;;;;5.93;5.47;;;;;;;;;;5028989;28;20059;-68
2023/06/05 04:05:27;;;;;;;5.85;5.38;;;;;;;;;;5026767;28;20041;-67
2023/06/05 04:07:53;;;;;;;6.50;5.90;;;;;;;;;;5026903;28;20072;-67
2023/06/05 04:10:18;;;;;;;5.82;5.38;;;;;;;;;;5043769;28;20693;-67
2023/06/05 04:12:44;;;;;;;5.72;5.32;;;;;;;;;;5027431;28;20420;-67
2023/06/05 04:15:10;;;;;;;6.47;5.75;;;;;;;;;;5026070;28;20048;-67
2023/06/05 04:17:37;;;;;;;5.90;5.40;;;;;;;;;;5024320;28;20048;-68
2023/06/05 04:20:04;;;;;;;5.57;5.15;;;;;;;;;;5026844;28;20041;-67
2023/06/05 04:22:31;;;;;;;5.68;5.22;;;;;;;;;;5025937;28;20117;-67
2023/06/05 04:24:56;;;;;;;5.78;5.30;;;;;;;;;;5026260;28;20116;-68
2023/06/05 04:27:28;;;;;;;7.57;6.03;;;;;;;;;;5028122;28;20079;-69
2023/06/05 04:29:54;;;;;;;6.10;5.50;;;;;;;;;;5043278;28;20091;-70
2023/06/05 04:32:19;;;;;;;8.70;5.68;;;;;;;;;;5031282;28;20042;-69
2023/06/05 04:34:45;;;;;;;5.70;5.20;;;;;;;;;;5024954;28;20068;-68
2023/06/05 04:37:11;;;;;;;5.85;5.35;;;;;;;;;;5021875;28;20030;-69
2023/06/05 04:39:37;;;;;;;5.70;5.30;;;;;;;;;;5013692;28;20037;-69
2023/06/05 04:42:03;;;;;;;6.10;5.60;;;;;;;;;;5025553;28;20481;-68
2023/06/05 04:44:28;;;;;;;5.93;5.13;;;;;;;;;;5015365;28;20057;-69
2023/06/05 04:46:54;;;;;;;7.65;5.55;;;;;;;;;;5023717;28;20037;-68
2023/06/05 04:49:22;;;;;;;6.10;5.50;;;;;;;;;;5003152;28;20042;-69
2023/06/05 04:51:48;;;;;;;6.10;5.60;;;;;;;;;;5018810;28;20071;-69
2023/06/05 04:54:14;;;;;;;5.72;5.22;;;;;;;;;;5024757;28;20163;-68
2023/06/05 04:56:41;;;;;;;7.95;5.60;;;;;;;;;;5022758;28;20494;-68
2023/06/05 04:59:09;;;;;;;5.97;5.47;;;;;;;;;;5025012;28;20117;-68
2023/06/05 05:01:35;;;;;;;10.32;5.32;;;;;;;;;;5026220;28;20056;-68
2023/06/05 05:04:01;;;;;;;6.30;5.80;;;;;;;;;;5026838;28;20037;-68
2023/06/05 05:06:27;;;;;;;6.60;6.00;;;;;;;;;;5040619;28;20065;-68
2023/06/05 05:08:53;;;;;;;6.18;5.68;;;;;;;;;;5023098;28;20029;-68
2023/06/05 05:11:20;;;;;;;6.93;6.32;;;;;;;;;;5026323;28;20041;-69
2023/06/05 05:13:46;;;;;;;6.65;5.90;;;;;;;;;;5025055;28;20037;-69
2023/06/05 05:16:13;;;;;;;6.72;6.13;;;;;;;;;;5041336;28;20542;-69
2023/06/05 05:18:40;;;;;;;6.40;5.80;;;;;;;;;;5025315;28;20037;-69
2023/06/05 05:21:06;;;;;;;6.10;5.60;;;;;;;;;;5025149;28;20037;-69
2023/06/05 05:23:33;;;;;;;6.68;5.95;;;;;;;;;;5015530;28;20025;-69
2023/06/05 05:26:00;;;;;;;8.02;6.00;;;;;;;;;;5016924;28;20449;-67
2023/06/05 05:28:25;;;;;;;6.38;5.82;;;;;;;;;;5023311;28;20034;-67
2023/06/05 05:30:51;;;;;;;7.32;6.00;;;;;;;;;;5024411;28;20076;-69
2023/06/05 05:33:18;;;;;;;6.00;5.47;;;;;;;;;;5006771;28;20065;-66
2023/06/05 05:35:47;;;;;;;6.40;5.90;;;;;;;;;;5022506;28;20037;-66
2023/06/05 05:38:12;;;;;;;;;;;;;;;;;;5025168;28;20408;-67
2023/06/05 05:40:38;;;;;;;7.10;5.85;;;;;;;;;;5013605;28;19917;-70
2023/06/05 05:43:03;;;;;;;7.78;6.28;;;;;;;;;;5024729;28;20135;-70
2023/06/05 05:45:29;;;;;;;6.82;6.07;;;;;;;;;;5013332;28;20037;-69
2023/06/05 05:47:55;;;;;;;6.85;6.07;;;;;;;;;;5019433;28;20033;-69
2023/06/05 05:50:20;;;;;;;6.30;5.80;;;;;;;;;;5025784;28;20043;-69
2023/06/05 05:52:47;;;;;;;7.25;5.65;;;;;;;;;;5024073;28;20091;-69
2023/06/05 05:55:13;;;;;;;6.85;5.80;;;;;;;;;;5025905;28;20041;-69
2023/06/05 05:57:39;;;;;;;8.05;5.78;;;;;;;;;;5024776;28;20029;-69
2023/06/05 06:00:12;;;;;;;6.70;5.70;;;;;;;;;;5025885;28;20137;-67
2023/06/05 06:02:41;;;;;;;6.88;5.95;;;;;;;;;;5023440;28;20029;-67
2023/06/05 06:05:08;;;;;;;6.25;5.72;;;;;;;;;;5025187;28;20640;-69
2023/06/05 06:07:35;;;;;;;14.35;5.55;;;;;;;;;;5025703;28;20025;-70
2023/06/05 06:10:01;;;;;;;5.63;5.22;;;;;;;;;;5023077;28;20037;-69
2023/06/05 06:12:27;;;;;;;6.38;5.72;;;;;;;;;;5024770;28;20045;-69
2023/06/05 06:14:56;;;;;;;7.40;6.13;;;;;;;;;;5025698;28;20116;-68
2023/06/05 06:17:22;;;;;;;5.95;5.45;;;;;;;;;;5023948;28;20116;-67
2023/06/05 06:19:48;;;;;;;7.45;5.72;;;;;;;;;;5023132;28;20033;-69
2023/06/05 06:22:14;;;;;;;5.43;4.93;;;;;;;;;;5024760;28;20125;-67
2023/06/05 06:24:41;;;;;;;5.88;5.35;;;;;;;;;;5025502;28;20041;-67
2023/06/05 06:27:10;;;;;;;6.22;5.63;;;;;;;;;;5025756;28;20116;-67
2023/06/05 06:29:46;;;;;;;6.28;5.68;;;;;;;;;;5022864;28;20033;-67
2023/06/05 06:32:11;;;;;;;7.20;5.30;;;;;;;;;;5020555;28;20037;-67
2023/06/05 06:34:38;;;;;;;5.35;4.93;;;;;;;;;;5025460;28;20396;-67
2023/06/05 06:37:04;;;;;;;5.53;5.03;;;;;;;;;;5025628;28;20059;-70
2023/06/05 06:39:29;;;;;;;8.13;5.00;;;;;;;;;;5025221;28;20052;-70
2023/06/05 06:41:57;;;;;;;5.85;4.90;;;;;;;;;;5023440;28;20044;-70
2023/06/05 06:44:23;;;;;;;7.28;5.40;;;;;;;;;;5025284;28;20041;-70
2023/06/05 06:46:48;;;;;;;6.72;5.43;;;;;;;;;;5025322;28;20821;-69
2023/06/05 06:49:14;;;;;;;5.90;4.55;;;;;;;;;;5017604;28;20075;-70
2023/06/05 06:51:40;;;;;;;6.75;5.32;;;;;;;;;;5025018;28;20033;-70
2023/06/05 06:54:05;;;;;;;4.93;4.45;;;;;;;;;;5024779;28;20036;-70
2023/06/05 06:56:31;;;;;;;5.22;4.72;;;;;;;;;;5025132;28;20033;-70
2023/06/05 06:58:57;;;;;;;5.60;4.00;;;;;;;;;;5022065;28;20041;-69
2023/06/05 07:01:23;;;;;;;5.22;4.68;;;;;;;;;;5025902;28;20033;-68
2023/06/05 07:03:49;;;;;;;5.22;4.70;;;;;;;;;;5024485;28;20037;-70
2023/06/05 07:06:15;;;;;;;4.88;4.40;;;;;;;;;;5025149;28;20548;-70
2023/06/05 07:08:40;;;;;;;5.90;4.70;;;;;;;;;;5021954;28;20112;-68
2023/06/05 07:11:06;;;;;;;4.75;4.32;;;;;;;;;;5020015;28;20037;-68
2023/06/05 07:13:31;;;;;;;5.45;4.72;;;;;;;;;;5020019;28;20052;-69
2023/06/05 07:15:57;;;;;;;5.28;4.63;;;;;;;;;;5018649;28;20145;-67
2023/06/05 07:18:23;;;;;;;6.55;5.03;;;;;;;;;;5016776;28;20045;-69
2023/06/05 07:20:48;;;;;;;5.65;4.95;;;;;;;;;;5021842;28;20041;-69
2023/06/05 07:23:14;;;;;;;6.57;4.32;;;;;;;;;;5020348;28;20030;-67
2023/06/05 07:25:40;;;;;;;6.13;4.55;;;;;;;;;;5024322;28;20041;-69
2023/06/05 07:28:13;;;;;;;4.90;4.40;;;;;;;;;;5027111;28;20117;-69
2023/06/05 07:30:43;;;;;;;4.72;4.30;;;;;;;;;;5020128;28;20069;-69
2023/06/05 07:33:09;;;;;;;5.22;4.25;;;;;;;;;;5020376;28;20033;-69
2023/06/05 07:35:35;;;;;;;4.95;4.40;;;;;;;;;;5017663;28;20120;-69
2023/06/05 07:38:01;;;;;;;5.22;4.20;;;;;;;;;;5018654;28;20124;-69
2023/06/05 07:40:26;;;;;;;5.65;4.20;;;;;;;;;;5023039;28;20504;-68
2023/06/05 07:42:52;;;;;;;4.35;3.95;;;;;;;;;;5016154;28;20037;-68
2023/06/05 07:45:17;;;;;;;4.22;3.83;;;;;;;;;;5021930;28;20043;-69
2023/06/05 07:47:43;;;;;;;5.90;4.13;;;;;;;;;;5020858;28;20065;-69
2023/06/05 07:50:09;;;;;;;5.20;4.22;;;;;;;;;;5028017;28;20033;-69
2023/06/05 07:52:35;;;;;;;4.60;3.83;;;;;;;;;;5026823;28;20049;-68
2023/06/05 07:55:01;;;;;;;4.57;4.10;;;;;;;;;;5027060;28;20079;-69
2023/06/05 07:57:28;;;;;;;4.45;4.15;;;;;;;;;;5027418;28;20040;-69
2023/06/05 07:59:54;;;;;;;9.18;4.65;;;;;;;;;;5027363;28;20547;-69
2023/06/05 08:02:21;;;;;;;4.88;4.47;;;;;;;;;;5023939;28;20133;-69
2023/06/05 08:04:46;;;;;;;5.50;4.28;;;;;;;;;;5024552;28;20116;-69
2023/06/05 08:07:13;;;;;;;4.55;4.15;;;;;;;;;;5026522;28;20120;-69
2023/06/05 08:09:39;;;;;;;8.40;4.25;;;;;;;;;;5028295;28;20555;-69
2023/06/05 08:12:04;;;;;;;4.78;4.30;;;;;;;;;;5028226;28;20042;-69
2023/06/05 08:14:30;;;;;;;5.95;4.25;;;;;;;;;;5026659;28;20099;-69
2023/06/05 08:16:55;;;;;;;4.40;4.07;;;;;;;;;;5027756;28;20658;-69
2023/06/05 08:19:22;;;;;;;4.53;4.13;;;;;;;;;;5025769;28;20496;-69
2023/06/05 08:21:51;;;;;;;5.22;4.32;;;;;;;;;;5024098;28;20068;-68
2023/06/05 08:24:17;;;;;;;6.43;4.18;;;;;;;;;;5025837;28;20575;-69
2023/06/05 08:26:43;;;;;;;6.82;4.15;;;;;;;;;;5027737;28;20041;-69
2023/06/05 08:29:08;;;;;;;4.75;4.20;;;;;;;;;;5025292;28;20113;-69
2023/06/05 08:31:36;;;;;;;7.57;4.32;;;;;;;;;;5020282;28;20044;-69
2023/06/05 08:34:02;;;;;;;5.72;4.40;;;;;;;;;;5021742;28;20483;-69
2023/06/05 08:36:28;;;;;;;5.95;4.38;;;;;;;;;;5023157;28;20103;-69
2023/06/05 08:38:53;;;;;;;5.03;4.50;;;;;;;;;;5023188;28;20460;-69
2023/06/05 08:41:19;;;;;;;4.75;4.35;;;;;;;;;;5020396;28;20033;-69
2023/06/05 08:43:45;;;;;;;4.90;4.40;;;;;;;;;;5020810;28;20068;-70
2023/06/05 08:46:11;;;;;;;4.63;4.22;;;;;;;;;;5022217;28;20476;-69
2023/06/05 08:48:41;;;;;;;4.75;4.35;;;;;;;;;;5022961;28;20052;-69
2023/06/05 08:51:11;;;;;;;5.10;4.45;;;;;;;;;;5020659;28;20919;-69
2023/06/05 08:53:38;;;;;;;4.90;4.40;;;;;;;;;;5022206;28;20820;-69
2023/06/05 08:56:05;;;;;;;5.18;4.22;;;;;;;;;;5023183;28;20049;-69
2023/06/05 08:58:31;;;;;;;4.93;4.03;;;;;;;;;;5020679;28;20118;-69
2023/06/05 09:01:00;;;;;;;5.55;4.35;;;;;;;;;;5023026;28;20130;-69
2023/06/05 09:03:25;;;;;;;4.40;4.00;;;;;;;;;;5022074;28;20049;-69
2023/06/05 09:05:52;;;;;;;8.00;4.00;;;;;;;;;;5021550;28;20300;-68
2023/06/05 09:08:28;;;;;;;7.78;4.32;;;;;;;;;;5022298;28;20678;-68
2023/06/05 09:10:54;;;;;;;5.60;3.80;;;;;;;;;;5022778;28;20492;-68
2023/06/05 09:13:22;;;;;;;4.28;3.67;;;;;;;;;;5022712;28;20040;-68
2023/06/05 09:15:50;;;;;;;;;;;;;;;;;;5021794;28;20048;-68
2023/06/05 09:18:15;;;;;;;5.00;3.90;;;;;;;;;;5022637;28;19925;-68
2023/06/05 09:20:45;;;;;;;3.60;3.30;;;;;;;;;;5023139;28;20041;-68
2023/06/05 09:23:28;;;;;;;4.45;3.83;;;;;;;;;;5019265;28;20496;-69
2023/06/05 09:25:59;;;;;;;5.72;4.20;;;;;;;;;;5020617;28;20041;-69
2023/06/05 09:28:25;;;;;;;4.20;3.80;;;;;;;;;;5022616;28;20030;-69
2023/06/05 09:30:57;;;;;;;5.43;3.90;;;;;;;;;;5023472;28;20580;-69
2023/06/05 09:33:24;;;;;;;4.32;4.00;;;;;;;;;;5018521;28;20128;-69
2023/06/05 09:36:16;;;;;;;4.40;3.90;;;;;;;;;;5021130;28;20033;-69
2023/06/05 09:38:42;;;;;;;4.93;4.45;;;;;;;;;;5018186;28;20045;-69
2023/06/05 09:41:09;;;;;;;6.30;4.80;;;;;;;;;;5020525;28;20025;-69
2023/06/05 09:43:38;;;;;;;6.28;4.40;;;;;;;;;;5022138;28;20689;-69
2023/06/05 09:46:11;;;;;;;4.32;3.92;;;;;;;;;;5020206;28;21333;-69
2023/06/05 09:48:38;;;;;;;5.05;4.45;;;;;;;;;;5002840;28;20095;-70
2023/06/05 09:51:10;;;;;;;5.22;4.72;;;;;;;;;;5018115;28;20033;-69
2023/06/05 09:53:50;;;;;;;4.25;3.92;;;;;;;;;;5021304;28;20037;-69
2023/06/05 09:56:19;;;;;;;4.63;4.20;;;;;;;;;;5019328;28;20176;-68
2023/06/05 09:58:46;;;;;;;6.50;4.63;;;;;;;;;;5019038;28;20037;-71
2023/06/05 10:01:17;;;;;;;7.10;4.10;;;;;;;;;;5020529;28;20072;-69
2023/06/05 10:03:50;;;;;;;4.47;4.10;;;;;;;;;;5022548;28;20037;-69
2023/06/05 10:06:23;;;;;;;4.55;4.13;;;;;;;;;;5018245;28;20029;-70
2023/06/05 10:08:49;;;;;;;5.70;3.90;;;;;;;;;;5021842;28;20029;-69
2023/06/05 10:11:16;;;;;;;4.82;4.10;;;;;;;;;;5021225;28;20051;-70
2023/06/05 10:13:43;;;;;;;4.93;3.85;;;;;;;;;;5020160;28;20038;-69
2023/06/05 10:16:08;;;;;;;4.22;3.83;;;;;;;;;;5018628;28;20130;-70
2023/06/05 10:18:34;;;;;;;4.78;4.10;;;;;;;;;;5021146;28;20083;-69
2023/06/05 10:21:01;;;;;;;6.47;3.72;;;;;;;;;;5021248;28;20041;-69
2023/06/05 10:23:27;;;;;;;4.18;3.75;;;;;;;;;;5019044;28;20041;-70
2023/06/05 10:25:55;;;;;;;4.10;3.80;;;;;;;;;;5020847;28;20516;-71
2023/06/05 10:28:36;;;;;;;4.25;3.85;;;;;;;;;;5019613;28;20671;-69
2023/06/05 10:31:20;;;;;;;4.45;4.00;;;;;;;;;;5019880;28;20417;-69
2023/06/05 10:34:02;;;;;;;3.95;3.63;;;;;;;;;;5017992;28;20033;-70
2023/06/05 10:37:03;;;;;;;4.63;3.88;;;;;;;;;;5020743;28;20129;-70
2023/06/05 10:39:31;;;;;;;4.10;3.70;;;;;;;;;;5014121;28;20060;-70
2023/06/05 10:41:58;;;;;;;7.72;3.92;;;;;;;;;;5017056;28;20696;-69
2023/06/05 10:44:41;;;;;;;4.32;3.92;;;;;;;;;;5018782;28;20091;-69
2023/06/05 10:47:32;;;;;;;3.65;3.35;;;;;;;;;;5017910;28;20051;-70
2023/06/05 10:50:19;;;;;;;4.18;3.70;;;;;;;;;;5017542;28;20038;-70
2023/06/05 10:52:45;;;;;;;4.05;3.67;;;;;;;;;;5020196;28;20493;-70
2023/06/05 10:55:20;;;;;;;3.83;3.53;;;;;;;;;;5014728;28;20043;-69
2023/06/05 10:58:01;;;;;;;5.22;3.88;;;;;;;;;;5018745;28;20064;-70
2023/06/05 11:00:31;;;;;;;4.15;3.83;;;;;;;;;;5020181;28;20033;-69
2023/06/05 11:02:57;;;;;;;4.18;3.78;;;;;;;;;;5020532;28;20955;-69
2023/06/05 11:05:23;;;;;;;4.15;3.80;;;;;;;;;;5018623;28;20044;-69
2023/06/05 11:08:09;;;;;;;4.03;3.72;;;;;;;;;;5016498;28;20045;-70
2023/06/05 11:10:35;;;;;;;3.92;3.63;;;;;;;;;;5017226;28;20091;-69
2023/06/05 11:13:01;;;;;;;4.00;3.60;;;;;;;;;;5015430;28;20386;-71
2023/06/05 11:15:30;;;;;;;4.53;3.70;;;;;;;;;;5016091;28;20041;-70
2023/06/05 11:17:56;;;;;;;4.25;3.85;;;;;;;;;;5017761;28;20048;-69
2023/06/05 11:20:28;;;;;;;3.78;3.47;;;;;;;;;;5013931;28;20132;-69
2023/06/05 11:22:57;;;;;;;3.97;3.58;;;;;;;;;;5014565;28;20143;-69
2023/06/05 11:25:26;;;;;;;4.32;3.88;;;;;;;;;;5015663;28;20045;-69
2023/06/05 11:28:12;;;;;;;5.05;3.60;;;;;;;;;;5020984;28;20041;-69
2023/06/05 11:30:40;;;;;;;3.70;3.40;;;;;;;;;;5019674;28;20072;-70
2023/06/05 11:33:08;;;;;;;3.93;3.57;;;;;;;;;;5018691;28;20116;-70
2023/06/05 11:35:35;;;;;;;3.90;3.60;;;;;;;;;;5019146;28;20130;-71
2023/06/05 11:38:11;;;;;;;4.50;4.20;;;;;;;;;;5018204;28;20041;-71
2023/06/05 11:40:37;;;;;;;4.25;3.65;;;;;;;;;;5016655;28;20037;-70
2023/06/05 11:43:05;;;;;;;4.78;4.35;;;;;;;;;;5004551;28;20080;-69
2023/06/05 11:45:36;;;;;;;3.92;3.60;;;;;;;;;;5011746;28;20132;-70
2023/06/05 11:48:12;;;;;;;3.78;3.47;;;;;;;;;;5018900;28;20117;-70
2023/06/05 11:50:40;;;;;;;4.45;3.80;;;;;;;;;;5016450;28;20103;-70
2023/06/05 11:53:07;;;;;;;4.90;4.38;;;;;;;;;;5017423;28;20045;-69
2023/06/05 11:55:43;;;;;;;4.30;3.90;;;;;;;;;;5017710;28;20037;-70
2023/06/05 11:58:10;;;;;;;3.70;3.40;;;;;;;;;;5018551;28;20034;-70
2023/06/05 12:00:36;;;;;;;5.72;4.07;;;;;;;;;;5014600;28;20041;-70
2023/06/05 12:03:01;;;;;;;4.35;4.03;;;;;;;;;;5018278;28;20052;-69
2023/06/05 12:05:27;;;;;;;4.30;3.97;;;;;;;;;;5018268;28;20084;-70
2023/06/05 12:07:53;;;;;;;4.03;3.72;;;;;;;;;;5017325;28;20392;-69
2023/06/05 12:10:19;;;;;;;4.53;4.05;;;;;;;;;;5014647;28;20120;-70
2023/06/05 12:12:52;;;;;;;4.30;3.90;;;;;;;;;;5018100;28;20041;-69
2023/06/05 12:15:19;;;;;;;4.20;3.88;;;;;;;;;;5018077;28;20033;-70
2023/06/05 12:17:55;;;;;;;5.18;3.85;;;;;;;;;;5018913;28;20479;-70
2023/06/05 12:20:22;;;;;;;4.80;4.30;;;;;;;;;;5023898;28;20056;-68
2023/06/05 12:22:48;;;;;;;4.53;4.10;;;;;;;;;;5025415;28;20112;-70
2023/06/05 12:25:21;;;;;;;4.47;4.07;;;;;;;;;;5025636;28;20037;-70
2023/06/05 12:27:48;;;;;;;4.32;3.92;;;;;;;;;;5023440;28;20041;-69
2023/06/05 12:30:16;;;;;;;4.75;4.15;;;;;;;;;;5025312;28;20033;-70
2023/06/05 12:32:43;;;;;;;4.45;3.90;;;;;;;;;;5025888;28;20033;-69
2023/06/05 12:35:22;;;;;;;4.43;4.03;;;;;;;;;;5024963;28;20049;-69
2023/06/05 12:37:49;;;;;;;4.68;4.20;;;;;;;;;;5025318;28;20818;-69
2023/06/05 12:40:20;;;;;;;4.43;4.03;;;;;;;;;;5023750;28;20087;-69
2023/06/05 12:42:47;;;;;;;4.30;3.65;;;;;;;;;;5023447;28;20037;-69
2023/06/05 12:45:13;;;;;;;4.13;3.72;;;;;;;;;;5025467;28;20041;-70
2023/06/05 12:47:40;;;;;;;4.05;3.75;;;;;;;;;;5023909;28;20033;-69
2023/06/05 12:50:07;;;;;;;5.82;4.30;;;;;;;;;;5017701;28;20072;-69
2023/06/05 12:52:33;;;;;;;5.43;3.90;;;;;;;;;;5022093;28;20037;-71
2023/06/05 12:54:59;;;;;;;4.18;3.80;;;;;;;;;;5021599;28;20543;-69
2023/06/05 12:57:25;;;;;;;4.50;4.10;;;;;;;;;;5021877;28;20063;-70
2023/06/05 12:59:53;;;;;;;5.55;4.30;;;;;;;;;;5019019;28;20037;-70
2023/06/05 13:02:19;;;;;;;4.93;4.18;;;;;;;;;;5020249;28;20037;-69
2023/06/05 13:04:45;;;;;;;4.50;4.13;;;;;;;;;;5019588;28;20715;-68
2023/06/05 13:07:11;;;;;;;5.45;4.50;;;;;;;;;;5019810;28;20852;-70
2023/06/05 13:09:37;;;;;;;4.60;4.20;;;;;;;;;;5020557;28;20131;-68
2023/06/05 13:12:03;;;;;;;4.97;4.30;;;;;;;;;;5021289;28;20041;-70
2023/06/05 13:14:30;;;;;;;5.05;3.90;;;;;;;;;;5021903;28;20144;-69
2023/06/05 13:16:57;;;;;;;4.88;4.03;;;;;;;;;;5019135;28;20033;-69
2023/06/05 13:19:22;;;;;;;5.90;4.30;;;;;;;;;;5017901;28;20090;-70
2023/06/05 13:21:49;;;;;;;4.85;4.30;;;;;;;;;;5020228;28;20045;-69
2023/06/05 13:24:15;;;;;;;4.50;4.20;;;;;;;;;;5019233;28;20037;-70
2023/06/05 13:26:42;;;;;;;4.68;4.28;;;;;;;;;;5021347;28;20522;-70
2023/06/05 13:29:08;;;;;;;4.90;4.38;;;;;;;;;;5020544;28;20066;-69
2023/06/05 13:31:34;;;;;;;4.97;4.47;;;;;;;;;;5019781;28;20057;-68
2023/06/05 13:34:00;;;;;;;4.72;4.32;;;;;;;;;;5019966;28;20039;-69
2023/06/05 13:36:26;;;;;;;4.65;4.20;;;;;;;;;;5019814;28;20082;-69
2023/06/05 13:38:52;;;;;;;5.03;4.63;;;;;;;;;;5019580;28;20349;-69
2023/06/05 13:41:17;;;;;;;5.07;4.32;;;;;;;;;;5018558;28;20160;-69
2023/06/05 13:43:43;;;;;;;5.55;4.85;;;;;;;;;;5020401;28;20029;-68
2023/06/05 13:46:09;;;;;;;6.05;4.78;;;;;;;;;;5020497;28;20411;-69
2023/06/05 13:48:35;;;;;;;5.25;4.85;;;;;;;;;;5019327;28;20052;-68
2023/06/05 13:51:01;;;;;;;5.38;4.63;;;;;;;;;;5019165;28;20042;-68
2023/06/05 13:53:27;;;;;;;5.63;4.15;;;;;;;;;;5020219;28;20052;-70
2023/06/05 13:55:53;;;;;;;5.32;4.82;;;;;;;;;;5019587;28;20045;-68
2023/06/05 13:58:19;;;;;;;4.88;4.47;;;;;;;;;;5015560;28;20644;-68
2023/06/05 14:00:45;;;;;;;5.10;4.65;;;;;;;;;;5017153;28;20533;-69
2023/06/05 14:03:12;;;;;;;4.80;4.40;;;;;;;;;;5015963;28;20546;-69
2023/06/05 14:05:38;;;;;;;4.88;4.47;;;;;;;;;;5016982;28;20068;-71
2023/06/05 14:08:05;;;;;;;4.90;4.22;;;;;;;;;;5022670;28;20101;-70
2023/06/05 14:10:33;;;;;;;4.85;4.35;;;;;;;;;;5017388;28;20525;-70
2023/06/05 14:12:58;;;;;;;4.53;4.10;;;;;;;;;;5017800;28;20033;-69
2023/06/05 14:15:24;;;;;;;5.18;4.30;;;;;;;;;;5018785;28;20035;-69
2023/06/05 14:17:50;;;;;;;6.20;4.13;;;;;;;;;;5018516;28;20037;-69
2023/06/05 14:20:17;;;;;;;5.10;4.47;;;;;;;;;;5021298;28;20029;-70
2023/06/05 14:22:43;;;;;;;4.93;4.50;;;;;;;;;;5020560;28;20037;-68
2023/06/05 14:25:10;;;;;;;4.40;4.00;;;;;;;;;;5018979;28;20029;-70
2023/06/05 14:27:36;;;;;;;4.50;4.10;;;;;;;;;;5021619;28;20035;-69
2023/06/05 14:30:02;;;;;;;5.60;4.13;;;;;;;;;;5020988;28;20033;-70
2023/06/05 14:32:27;;;;;;;4.43;4.03;;;;;;;;;;5019309;28;20037;-70
2023/06/05 14:34:53;;;;;;;6.72;4.22;;;;;;;;;;5018435;28;20100;-68
2023/06/05 14:37:18;;;;;;;4.85;4.13;;;;;;;;;;5019657;28;20044;-68
2023/06/05 14:39:44;;;;;;;5.20;4.15;;;;;;;;;;5020082;28;20035;-68
2023/06/05 14:42:10;;;;;;;5.10;4.47;;;;;;;;;;5017705;28;20060;-70
2023/06/05 14:44:35;;;;;;;6.88;4.80;;;;;;;;;;5021399;28;20120;-69
2023/06/05 14:47:01;;;;;;;5.03;4.53;;;;;;;;;;5020114;28;20551;-70